Time;durP1;ratioP1;P1;durP2;ratioP2;P2;SDS_P1;SDS_P2;PMS_P1;PMS_P2;Temp;Humidity;BMP_temperature;BMP_pressure;BME280_temperature;BME280_humidity;BME280_pressure;Samples;Min_cycle;Max_cycle;Signal;HPM_P1;HPM_P2
2023/02/10 00:02:46;;;;;;;33.63;19.10;;;;;4.30;103072.00;;;;10032868;29;20189;-77
2023/02/10 00:07:48;;;;;;;39.07;19.63;;;;;4.30;103080.00;;;;10048289;29;20755;-77
2023/02/10 00:12:50;;;;;;;33.77;19.63;;;;;4.30;103089.00;;;;10040912;29;20696;-77
2023/02/10 00:17:51;;;;;;;34.67;19.17;;;;;4.30;103082.00;;;;10086837;29;20200;-77
2023/02/10 00:22:53;;;;;;;38.53;20.67;;;;;4.30;103084.00;;;;10071615;29;20207;-77
2023/02/10 00:27:55;;;;;;;40.70;20.50;;;;;4.30;103084.00;;;;10065033;29;20719;-77
2023/02/10 00:32:57;;;;;;;36.97;19.53;;;;;4.20;103085.00;;;;10042381;29;20212;-77
2023/02/10 00:37:59;;;;;;;36.17;19.47;;;;;4.00;103078.00;;;;10042541;29;20197;-77
2023/02/10 00:43:01;;;;;;;37.43;21.60;;;;;3.80;103083.00;;;;10026861;29;20649;-77
2023/02/10 00:48:03;;;;;;;37.27;20.33;;;;;3.70;103080.00;;;;10056813;29;20284;-77
2023/02/10 00:53:05;;;;;;;35.13;20.23;;;;;3.50;103095.00;;;;10041434;29;20444;-77
2023/02/10 00:58:08;;;;;;;39.20;20.57;;;;;3.50;103086.00;;;;10025490;29;20679;-77
2023/02/10 01:03:10;;;;;;;51.23;21.80;;;;;3.40;103087.00;;;;10040309;29;20192;-77
2023/02/10 01:08:13;;;;;;;37.43;20.73;;;;;3.50;103085.00;;;;10025407;29;20645;-77
2023/02/10 01:13:15;;;;;;;42.13;22.70;;;;;3.50;103090.00;;;;10040274;29;20225;-77
2023/02/10 01:18:17;;;;;;;42.67;22.33;;;;;3.60;103099.00;;;;10050466;29;20295;-77
2023/02/10 01:23:19;;;;;;;37.33;22.13;;;;;3.70;103106.00;;;;10093415;29;20667;-77
2023/02/10 01:28:21;;;;;;;37.87;21.53;;;;;3.70;103104.00;;;;10055224;29;20224;-77
2023/02/10 01:33:23;;;;;;;38.43;21.40;;;;;3.70;103120.00;;;;10041702;29;20252;-77
2023/02/10 01:38:25;;;;;;;39.07;21.27;;;;;3.70;103126.00;;;;10042365;29;20208;-77
2023/02/10 01:43:27;;;;;;;45.50;22.53;;;;;3.70;103123.00;;;;10055781;29;20200;-77
2023/02/10 01:48:29;;;;;;;44.93;22.90;;;;;3.70;103129.00;;;;10035919;29;20200;-77
2023/02/10 01:53:31;;;;;;;47.40;23.33;;;;;3.60;103129.00;;;;10067070;29;20220;-77
2023/02/10 01:58:34;;;;;;;38.33;21.40;;;;;3.60;103131.00;;;;9998557;29;20232;-77
2023/02/10 02:03:39;;;;;;;42.47;22.10;;;;;3.60;103132.00;;;;10003026;29;20560;-77
2023/02/10 02:08:41;;;;;;;40.53;21.70;;;;;3.40;103137.00;;;;10004307;29;20193;-78
2023/02/10 02:14:05;;;;;;;43.77;22.53;;;;;3.20;103159.00;;;;10012002;29;20228;-77
2023/02/10 02:19:31;;;;;;;39.07;22.07;;;;;2.90;103134.00;;;;10079422;29;20850;-77
2023/02/10 02:24:48;;;;;;;43.03;21.37;;;;;2.80;103143.00;;;;10079814;29;20196;-77
2023/02/10 02:30:20;;;;;;;38.20;20.97;;;;;2.70;103124.00;;;;10029145;29;20240;-77
2023/02/10 02:35:31;;;;;;;34.77;20.33;;;;;2.60;103119.00;;;;10024652;29;20197;-77
2023/02/10 02:40:32;;;;;;;49.70;23.23;;;;;2.50;103113.00;;;;10039480;29;20677;-77
2023/02/10 02:45:46;;;;;;;45.10;20.07;;;;;2.40;103106.00;;;;10078441;29;20198;-77
2023/02/10 02:51:10;;;;;;;44.17;21.60;;;;;2.30;103100.00;;;;10093104;29;20212;-77
2023/02/10 02:56:28;;;;;;;39.57;19.67;;;;;2.20;103103.00;;;;10048530;29;20210;-77
2023/02/10 03:01:46;;;;;;;40.43;20.70;;;;;2.10;103110.00;;;;9985374;29;20221;-77
2023/02/10 03:06:48;;;;;;;44.87;21.53;;;;;2.10;103118.00;;;;10001411;29;20189;-80
2023/02/10 03:11:50;;;;;;;44.57;21.60;;;;;2.00;103117.00;;;;9985639;29;20210;-77
2023/02/10 03:16:52;;;;;;;44.33;21.23;;;;;1.90;103117.00;;;;9986095;29;20238;-77
2023/02/10 03:21:54;;;;;;;45.33;21.00;;;;;1.90;103119.00;;;;10000795;29;20194;-79
2023/02/10 03:26:56;;;;;;;49.80;22.80;;;;;1.80;103114.00;;;;9983844;29;20229;-77
2023/02/10 03:32:01;;;;;;;42.93;21.83;;;;;1.70;103133.00;;;;10039227;29;20217;-77
2023/02/10 03:37:03;;;;;;;47.23;21.97;;;;;1.60;103128.00;;;;10028489;29;20216;-78
2023/02/10 03:42:06;;;;;;;50.17;23.10;;;;;1.70;103124.00;;;;10023828;29;20201;-76
2023/02/10 03:47:08;;;;;;;48.53;21.60;;;;;1.70;103132.00;;;;10023436;29;20264;-79
2023/02/10 03:52:10;;;;;;;45.53;20.43;;;;;1.70;103125.00;;;;10023373;29;20204;-77
2023/02/10 03:57:12;;;;;;;50.33;22.77;;;;;1.70;103123.00;;;;10052789;29;20208;-77
2023/02/10 04:02:14;;;;;;;50.47;20.97;;;;;1.70;103141.00;;;;10053587;29;20227;-77
2023/02/10 04:07:16;;;;;;;44.03;21.60;;;;;1.60;103151.00;;;;10028926;29;20718;-77
2023/02/10 04:12:18;;;;;;;49.13;21.83;;;;;1.40;103151.00;;;;10029922;29;20217;-78
2023/02/10 04:17:20;;;;;;;58.80;22.07;;;;;1.30;103145.00;;;;10044444;29;20284;-79
2023/02/10 04:22:22;;;;;;;51.40;21.20;;;;;1.10;103155.00;;;;10044774;29;20196;-79
2023/02/10 04:27:23;;;;;;;51.67;19.47;;;;;1.10;103142.00;;;;10044298;29;20239;-77
2023/02/10 04:32:26;;;;;;;55.13;22.47;;;;;1.00;103155.00;;;;10043492;29;20224;-77
2023/02/10 04:37:27;;;;;;;56.77;21.57;;;;;1.00;103152.00;;;;10028764;29;20297;-77
2023/02/10 04:42:29;;;;;;;50.33;21.30;;;;;0.90;103159.00;;;;10044027;29;20195;-79
2023/02/10 04:47:32;;;;;;;60.43;22.33;;;;;0.90;103162.00;;;;10013637;29;20200;-77
2023/02/10 04:52:34;;;;;;;58.23;22.63;;;;;0.90;103153.00;;;;10028258;29;20698;-79
2023/02/10 04:57:35;;;;;;;64.50;24.93;;;;;0.90;103162.00;;;;10043283;29;20568;-77
2023/02/10 05:02:37;;;;;;;55.17;22.73;;;;;0.80;103155.00;;;;10027500;29;20201;-77
2023/02/10 05:07:39;;;;;;;53.53;21.17;;;;;0.80;103143.00;;;;10043069;29;20185;-77
2023/02/10 05:12:41;;;;;;;64.70;21.67;;;;;0.90;103145.00;;;;10042816;29;20256;-79
2023/02/10 05:17:43;;;;;;;59.13;22.70;;;;;1.00;103146.00;;;;10012276;29;20197;-78
2023/02/10 05:22:45;;;;;;;61.10;23.30;;;;;1.00;103144.00;;;;10027378;29;20204;-77
2023/02/10 05:27:47;;;;;;;56.47;23.30;;;;;1.00;103151.00;;;;10023093;29;20248;-78
2023/02/10 05:32:49;;;;;;;63.07;22.60;;;;;0.90;103148.00;;;;10028603;29;20206;-78
2023/02/10 05:37:51;;;;;;;59.87;25.23;;;;;1.00;103154.00;;;;10026723;29;20253;-77
2023/02/10 05:42:53;;;;;;;61.03;23.93;;;;;1.00;103136.00;;;;10056997;29;20201;-77
2023/02/10 05:47:55;;;;;;;68.37;25.10;;;;;1.00;103146.00;;;;10026611;29;20196;-78
2023/02/10 05:52:57;;;;;;;68.73;25.47;;;;;1.10;103145.00;;;;10025734;29;20209;-78
2023/02/10 05:57:59;;;;;;;51.40;23.57;;;;;1.10;103152.00;;;;10041028;29;20197;-77
2023/02/10 06:03:01;;;;;;;57.63;24.57;;;;;1.10;103156.00;;;;10025349;29;20648;-77
2023/02/10 06:08:03;;;;;;;67.00;26.27;;;;;1.10;103146.00;;;;10032529;29;20563;-77
2023/02/10 06:13:04;;;;;;;54.63;24.67;;;;;1.10;103145.00;;;;10074301;29;20221;-77
2023/02/10 06:18:06;;;;;;;59.70;26.27;;;;;1.10;103157.00;;;;10010204;29;20200;-77
2023/02/10 06:23:08;;;;;;;56.37;25.73;;;;;1.20;103148.00;;;;10034733;29;20196;-77
2023/02/10 06:28:10;;;;;;;59.70;25.80;;;;;1.10;103146.00;;;;10071087;29;20228;-77
2023/02/10 06:33:12;;;;;;;64.97;27.00;;;;;1.00;103152.00;;;;10039322;29;20217;-77
2023/02/10 06:38:13;;;;;;;55.33;24.80;;;;;0.90;103154.00;;;;10039757;29;20189;-77
2023/02/10 06:43:15;;;;;;;57.93;27.37;;;;;0.90;103153.00;;;;10039267;29;20224;-78
2023/02/10 06:48:17;;;;;;;57.93;25.47;;;;;0.80;103152.00;;;;10039139;29;20605;-77
2023/02/10 06:53:20;;;;;;;55.67;27.47;;;;;0.80;103154.00;;;;10023767;29;20224;-77
2023/02/10 06:58:22;;;;;;;62.23;27.17;;;;;0.80;103154.00;;;;10050778;29;20240;-77
2023/02/10 07:03:26;;;;;;;49.77;24.63;;;;;1.00;103175.00;;;;10025768;29;20197;-80
2023/02/10 07:08:28;;;;;;;51.20;26.50;;;;;1.00;103173.00;;;;9988398;29;20185;-77
2023/02/10 07:13:30;;;;;;;57.10;27.73;;;;;1.00;103180.00;;;;9997826;29;20236;-78
2023/02/10 07:18:32;;;;;;;61.60;27.47;;;;;0.90;103173.00;;;;9999306;29;20197;-78
2023/02/10 07:23:34;;;;;;;65.43;27.57;;;;;0.90;103174.00;;;;10021993;29;20264;-79
2023/02/10 07:28:43;;;;;;;55.57;27.57;;;;;1.00;103174.00;;;;10019587;29;20220;-80
2023/02/10 07:33:45;;;;;;;64.43;30.87;;;;;1.10;103177.00;;;;10004409;29;20231;-77
2023/02/10 07:38:47;;;;;;;62.63;29.43;;;;;1.30;103179.00;;;;10032989;29;20208;-77
2023/02/10 07:43:49;;;;;;;65.47;29.33;;;;;1.60;103175.00;;;;10004546;29;20204;-77
2023/02/10 07:48:52;;;;;;;67.00;31.77;;;;;1.80;103172.00;;;;10016021;29;20197;-79
2023/02/10 07:53:55;;;;;;;63.57;29.90;;;;;2.00;103180.00;;;;9989079;29;20277;-79
2023/02/10 07:58:57;;;;;;;73.27;31.77;;;;;2.20;103185.00;;;;10021374;29;20257;-78
2023/02/10 08:03:59;;;;;;;69.87;30.97;;;;;2.30;103198.00;;;;10013290;29;20197;-79
2023/02/10 08:09:02;;;;;;;61.30;29.77;;;;;2.30;103207.00;;;;10020476;29;20613;-78
2023/02/10 08:14:04;;;;;;;71.60;32.43;;;;;2.40;103200.00;;;;10027307;29;20225;-79
2023/02/10 08:19:06;;;;;;;60.53;29.27;;;;;2.40;103216.00;;;;10040195;29;20198;-79
2023/02/10 08:24:08;;;;;;;54.73;29.23;;;;;2.50;103215.00;;;;10054381;29;20197;-79
2023/02/10 08:29:10;;;;;;;68.27;32.40;;;;;2.80;103214.00;;;;10043073;29;20575;-79
2023/02/10 08:34:15;;;;;;;68.57;30.57;;;;;3.20;103216.00;;;;10009353;29;20787;-79
2023/02/10 08:39:17;;;;;;;66.10;30.57;;;;;3.40;103217.00;;;;10041949;29;20594;-79
2023/02/10 08:44:19;;;;;;;66.33;31.70;;;;;3.80;103205.00;;;;10029616;29;20197;-79
2023/02/10 08:49:24;;;;;;;64.43;31.50;;;;;4.10;103215.00;;;;10015442;29;20220;-77
2023/02/10 08:54:26;;;;;;;67.63;33.63;;;;;4.30;103219.00;;;;10036500;29;20217;-79
2023/02/10 08:59:27;;;;;;;63.20;32.40;;;;;4.50;103215.00;;;;10012298;29;20249;-78
2023/02/10 09:04:30;;;;;;;73.30;35.33;;;;;4.50;103212.00;;;;10037298;29;20712;-77
2023/02/10 09:09:36;;;;;;;77.17;37.77;;;;;5.10;103219.00;;;;10044031;29;20818;-79
2023/02/10 09:14:39;;;;;;;74.53;35.43;;;;;5.80;103211.00;;;;10021186;29;20230;-77
2023/02/10 09:19:41;;;;;;;72.40;35.43;;;;;6.30;103217.00;;;;10014488;29;20227;-80
2023/02/10 09:24:47;;;;;;;69.93;33.23;;;;;6.60;103217.00;;;;10013866;29;20193;-77
2023/02/10 09:29:49;;;;;;;63.33;31.50;;;;;7.00;103213.00;;;;10009335;29;20224;-77
2023/02/10 09:34:51;;;;;;;70.47;33.20;;;;;7.00;103227.00;;;;10025026;29;20316;-77
2023/02/10 09:39:53;;;;;;;53.43;31.20;;;;;6.90;103228.00;;;;10043736;29;20213;-76
2023/02/10 09:45:12;;;;;;;61.20;29.30;;;;;6.60;103224.00;;;;10011882;29;20674;-77
2023/02/10 09:50:32;;;;;;;68.13;32.80;;;;;6.30;103234.00;;;;9999527;29;20299;-78
2023/02/10 09:55:46;;;;;;;64.13;28.97;;;;;5.90;103226.00;;;;10009968;29;20228;-78
2023/02/10 10:00:54;;;;;;;68.57;32.17;;;;;5.90;103233.00;;;;10004781;29;20210;-79
2023/02/10 10:06:26;;;;;;;69.33;31.83;;;;;5.80;103244.00;;;;10037292;29;20292;-79
2023/02/10 10:11:49;;;;;;;75.80;34.00;;;;;6.00;103250.00;;;;10007871;29;20217;-78
2023/02/10 10:17:11;;;;;;;86.40;34.93;;;;;6.30;103239.00;;;;10004440;29;20225;-78
2023/02/10 10:22:19;;;;;;;90.00;37.77;;;;;6.60;103232.00;;;;10029136;29;20733;-78
2023/02/10 10:27:43;;;;;;;88.27;41.60;;;;;6.90;103233.00;;;;10031755;29;20328;-78
2023/02/10 10:32:52;;;;;;;79.63;35.03;;;;;6.80;103245.00;;;;10017323;29;20224;-79
2023/02/10 10:37:55;;;;;;;94.77;36.07;;;;;7.30;103257.00;;;;10039419;29;20676;-80
2023/02/10 10:43:00;;;;;;;78.73;34.47;;;;;8.10;103246.00;;;;10014153;29;20778;-78
2023/02/10 10:48:11;;;;;;;76.90;35.80;;;;;8.30;103249.00;;;;10036325;29;20212;-77
2023/02/10 10:53:37;;;;;;;70.83;33.83;;;;;8.20;103243.00;;;;9995352;29;20204;-78
2023/02/10 10:58:44;;;;;;;73.17;34.43;;;;;8.70;103251.00;;;;10012928;29;20200;-77
2023/02/10 11:03:46;;;;;;;84.00;34.33;;;;;9.00;103242.00;;;;10011937;29;20208;-77
2023/02/10 11:08:59;;;;;;;69.77;32.70;;;;;9.10;103231.00;;;;10013070;29;20225;-78
2023/02/10 11:14:01;;;;;;;68.37;32.07;;;;;9.90;103225.00;;;;10027164;29;20225;-78
2023/02/10 11:19:03;;;;;;;72.53;32.10;;;;;10.60;103217.00;;;;10040885;29;20205;-78
2023/02/10 11:24:18;;;;;;;71.10;33.13;;;;;10.60;103213.00;;;;10029483;29;20253;-78
2023/02/10 11:29:20;;;;;;;61.03;29.40;;;;;10.50;103212.00;;;;10017639;29;20227;-77
2023/02/10 11:34:44;;;;;;;52.97;26.37;;;;;9.70;103214.00;;;;9999573;29;20224;-77
2023/02/10 11:39:49;;;;;;;49.50;23.40;;;;;9.30;103213.00;;;;10035050;29;20664;-79
2023/02/10 11:45:11;;;;;;;50.30;23.70;;;;;9.00;103226.00;;;;10041603;29;20189;-78
2023/02/10 11:50:27;;;;;;;48.97;22.63;;;;;8.80;103216.00;;;;10009552;29;20213;-77
2023/02/10 11:55:40;;;;;;;45.63;21.63;;;;;8.50;103230.00;;;;10026315;29;20219;-79
2023/02/10 12:00:53;;;;;;;32.60;16.00;;;;;8.50;103219.00;;;;10058379;29;20526;-76
2023/02/10 12:06:09;;;;;;;34.17;16.73;;;;;8.60;103215.00;;;;10036230;29;20197;-77
2023/02/10 12:11:17;;;;;;;34.37;16.13;;;;;8.70;103209.00;;;;10019546;29;20228;-78
2023/02/10 12:16:40;;;;;;;36.93;17.30;;;;;8.90;103204.00;;;;10037005;29;20606;-77
2023/02/10 12:22:10;;;;;;;35.77;16.70;;;;;9.10;103197.00;;;;10023201;29;20197;-77
2023/02/10 12:27:33;;;;;;;47.80;21.37;;;;;9.30;103195.00;;;;10021675;29;20228;-77
2023/02/10 12:33:12;;;;;;;43.37;19.77;;;;;9.30;103198.00;;;;10043699;29;20220;-77
2023/02/10 12:38:17;;;;;;;40.83;21.07;;;;;9.30;103189.00;;;;10008126;29;20228;-77
2023/02/10 12:43:36;;;;;;;35.33;18.27;;;;;9.20;103191.00;;;;10012038;29;20250;-78
2023/02/10 12:49:17;;;;;;;33.63;18.40;;;;;9.10;103178.00;;;;10035446;29;20687;-77
2023/02/10 12:54:26;;;;;;;31.50;17.93;;;;;9.20;103167.00;;;;10043893;29;20276;-78
2023/02/10 13:00:07;;;;;;;36.23;18.73;;;;;9.10;103178.00;;;;10051675;29;20198;-79
2023/02/10 13:05:16;;;;;;;37.93;18.97;;;;;8.90;103164.00;;;;10034427;29;20204;-78
2023/02/10 13:10:37;;;;;;;36.67;19.33;;;;;8.80;103167.00;;;;10049222;29;20197;-77
2023/02/10 13:15:49;;;;;;;41.20;20.13;;;;;8.60;103162.00;;;;10000568;29;20232;-78
2023/02/10 13:21:14;;;;;;;37.83;19.23;;;;;8.50;103162.00;;;;10002723;29;20229;-78
2023/02/10 13:26:48;;;;;;;39.97;20.63;;;;;8.20;103177.00;;;;10037581;29;20319;-78
2023/02/10 13:31:53;;;;;;;40.67;21.03;;;;;8.20;103174.00;;;;10014804;29;20240;-77
2023/02/10 13:36:59;;;;;;;47.67;21.67;;;;;8.20;103166.00;;;;10056400;29;20274;-78
2023/02/10 13:42:27;;;;;;;43.67;20.30;;;;;8.20;103161.00;;;;10010655;29;20233;-77
2023/02/10 13:47:46;;;;;;;50.57;23.50;;;;;8.10;103167.00;;;;10024458;29;20216;-78
2023/02/10 13:53:00;;;;;;;53.67;21.73;;;;;8.20;103157.00;;;;10020020;29;20277;-78
2023/02/10 13:58:05;;;;;;;46.10;21.30;;;;;8.10;103145.00;;;;10029612;29;20257;-77
2023/02/10 14:03:10;;;;;;;51.70;21.20;;;;;8.10;103153.00;;;;10024583;29;20197;-78
2023/02/10 14:08:30;;;;;;;44.33;18.30;;;;;8.10;103142.00;;;;10011080;29;20185;-78
2023/02/10 14:13:35;;;;;;;47.87;21.17;;;;;8.00;103141.00;;;;10023824;29;20759;-78
2023/02/10 14:18:38;;;;;;;46.40;20.37;;;;;8.00;103155.00;;;;10056381;29;20217;-79
2023/02/10 14:23:54;;;;;;;47.87;19.30;;;;;7.90;103152.00;;;;10018273;29;20189;-77
2023/02/10 14:28:57;;;;;;;55.23;21.27;;;;;8.00;103139.00;;;;10042879;29;20565;-77
2023/02/10 14:34:01;;;;;;;46.27;20.67;;;;;8.00;103134.00;;;;10022401;29;20265;-78
2023/02/10 14:39:04;;;;;;;51.43;23.10;;;;;8.00;103138.00;;;;10027172;29;20197;-77
2023/02/10 14:44:25;;;;;;;51.10;23.63;;;;;7.80;103155.00;;;;10015852;29;20201;-78
2023/02/10 14:49:29;;;;;;;53.67;22.57;;;;;7.70;103139.00;;;;10018641;29;20252;-77
2023/02/10 14:54:40;;;;;;;47.53;21.63;;;;;7.90;103134.00;;;;10041695;29;20224;-78
2023/02/10 14:59:42;;;;;;;48.27;22.20;;;;;8.10;103112.00;;;;10037488;29;20212;-77
2023/02/10 15:04:46;;;;;;;48.33;22.70;;;;;8.50;103107.00;;;;10024908;29;20200;-80
2023/02/10 15:09:48;;;;;;;60.83;23.20;;;;;8.60;103114.00;;;;10014172;29;20287;-77
2023/02/10 15:15:04;;;;;;;51.77;22.00;;;;;8.80;103102.00;;;;10069045;29;20229;-76
2023/02/10 15:20:18;;;;;;;53.53;22.50;;;;;8.40;103105.00;;;;10025443;29;20255;-76
2023/02/10 15:30:41;;;;;;;53.57;22.37;;;;;7.60;103103.00;;;;10027602;29;20208;-77
2023/02/10 15:35:51;;;;;;;48.97;22.47;;;;;7.40;103109.00;;;;10010202;29;20221;-78
2023/02/10 15:40:59;;;;;;;53.90;22.27;;;;;7.40;103116.00;;;;10027670;29;20227;-77
2023/02/10 15:46:17;;;;;;;55.10;22.40;;;;;7.40;103106.00;;;;10040306;29;20193;-79
2023/02/10 15:51:26;;;;;;;54.73;22.87;;;;;7.40;103114.00;;;;10036933;29;20251;-78
2023/02/10 15:56:29;;;;;;;50.43;21.87;;;;;7.20;103104.00;;;;10005438;29;20221;-77
2023/02/10 16:01:31;;;;;;;52.03;22.00;;;;;7.10;103115.00;;;;10017824;29;20194;-78
2023/02/10 16:06:35;;;;;;;49.47;21.97;;;;;6.80;103102.00;;;;10039849;29;20696;-80
2023/02/10 16:11:37;;;;;;;63.47;23.77;;;;;6.60;103097.00;;;;10016400;29;20213;-78
2023/02/10 16:16:43;;;;;;;47.87;20.60;;;;;6.40;103086.00;;;;10017730;29;20225;-78
2023/02/10 16:21:46;;;;;;;51.07;21.57;;;;;6.20;103097.00;;;;10029180;29;20205;-79
2023/02/10 16:26:50;;;;;;;54.90;21.87;;;;;6.10;103111.00;;;;10026929;29;20237;-80
2023/02/10 16:31:53;;;;;;;55.00;22.47;;;;;6.10;103106.00;;;;10041216;29;20877;-79
2023/02/10 16:36:57;;;;;;;51.73;22.10;;;;;6.00;103101.00;;;;10019180;29;20200;-79
2023/02/10 16:41:59;;;;;;;52.57;23.80;;;;;6.00;103104.00;;;;10026623;29;20202;-79
2023/02/10 16:47:00;;;;;;;58.70;23.43;;;;;6.00;103109.00;;;;10039098;29;20197;-79
2023/02/10 16:52:02;;;;;;;59.60;22.77;;;;;6.10;103097.00;;;;10033761;29;20676;-79
2023/02/10 16:57:05;;;;;;;57.57;23.83;;;;;6.00;103101.00;;;;10019305;29;20205;-79
2023/02/10 17:02:09;;;;;;;60.70;24.90;;;;;5.80;103100.00;;;;10009720;29;20202;-79
2023/02/10 17:07:11;;;;;;;60.87;25.67;;;;;5.60;103100.00;;;;10036987;29;20197;-79
2023/02/10 17:12:13;;;;;;;57.93;25.83;;;;;5.60;103103.00;;;;10022395;29;20205;-79
2023/02/10 17:17:14;;;;;;;64.87;27.27;;;;;5.60;103106.00;;;;10028169;29;20517;-79
2023/02/10 17:22:16;;;;;;;54.60;25.10;;;;;5.50;103106.00;;;;10020413;29;20308;-79
2023/02/10 17:27:18;;;;;;;63.87;28.07;;;;;5.50;103117.00;;;;10028848;29;20278;-79
2023/02/10 17:32:20;;;;;;;62.07;26.40;;;;;5.50;103112.00;;;;10006267;29;20220;-79
2023/02/10 17:37:22;;;;;;;57.20;25.87;;;;;5.50;103110.00;;;;9975930;29;20253;-79
2023/02/10 17:42:26;;;;;;;49.10;21.70;;;;;5.50;103094.00;;;;9994594;29;20571;-79
2023/02/10 17:47:32;;;;;;;57.63;24.97;;;;;5.60;103101.00;;;;10020939;29;21021;-79
2023/02/10 17:52:34;;;;;;;61.43;27.00;;;;;5.60;103088.00;;;;10023936;29;20209;-79
2023/02/10 17:57:36;;;;;;;59.17;27.00;;;;;5.60;103093.00;;;;10026813;29;20224;-79
2023/02/10 18:02:38;;;;;;;61.63;26.70;;;;;5.60;103084.00;;;;10008008;29;20547;-79
2023/02/10 18:07:40;;;;;;;66.33;28.37;;;;;5.50;103079.00;;;;9988108;29;20178;-79
2023/02/10 18:12:41;;;;;;;50.70;24.03;;;;;5.50;103086.00;;;;10021121;29;20244;-79
2023/02/10 18:17:45;;;;;;;52.83;25.50;;;;;5.60;103089.00;;;;10027861;29;20205;-79
2023/02/10 18:22:48;;;;;;;54.87;24.20;;;;;5.60;103094.00;;;;10026166;29;20233;-79
2023/02/10 18:27:50;;;;;;;52.63;22.80;;;;;5.70;103095.00;;;;10026810;29;20221;-79
2023/02/10 18:32:52;;;;;;;56.40;26.50;;;;;5.90;103086.00;;;;10040799;29;20688;-79
2023/02/10 18:37:54;;;;;;;49.43;23.90;;;;;6.00;103081.00;;;;10026107;29;20257;-79
2023/02/10 18:42:56;;;;;;;46.93;23.17;;;;;6.10;103085.00;;;;10025795;29;20189;-78
2023/02/10 18:47:58;;;;;;;53.23;24.10;;;;;6.20;103093.00;;;;10026051;29;20204;-79
2023/02/10 18:53:00;;;;;;;49.03;24.90;;;;;6.20;103089.00;;;;10025757;29;20891;-79
2023/02/10 18:58:02;;;;;;;53.17;26.87;;;;;6.30;103086.00;;;;10039936;29;20636;-79
2023/02/10 19:03:04;;;;;;;57.53;27.07;;;;;6.40;103091.00;;;;10040351;29;20728;-79
2023/02/10 19:08:06;;;;;;;41.37;21.83;;;;;6.40;103075.00;;;;10040648;29;20208;-79
2023/02/10 19:13:08;;;;;;;56.87;24.57;;;;;6.40;103076.00;;;;10041384;29;20300;-79
2023/02/10 19:18:10;;;;;;;49.90;24.17;;;;;6.50;103071.00;;;;10040760;29;20268;-79
2023/02/10 19:23:11;;;;;;;42.23;21.97;;;;;6.50;103059.00;;;;10061093;29;20207;-79
2023/02/10 19:28:14;;;;;;;51.50;22.80;;;;;6.50;103058.00;;;;10068500;29;20330;-79
2023/02/10 19:33:16;;;;;;;43.93;21.10;;;;;6.60;103051.00;;;;10051725;29;20225;-80
2023/02/10 19:38:18;;;;;;;42.40;20.60;;;;;6.60;103045.00;;;;10032835;29;20204;-79
2023/02/10 19:43:19;;;;;;;40.17;18.67;;;;;6.60;103055.00;;;;10033311;29;20193;-79
2023/02/10 19:48:21;;;;;;;39.07;18.57;;;;;6.70;103051.00;;;;10047033;29;20201;-79
2023/02/10 19:53:23;;;;;;;36.43;17.23;;;;;6.70;103047.00;;;;10031802;29;20623;-79
2023/02/10 19:58:26;;;;;;;36.63;16.70;;;;;6.80;103049.00;;;;10045890;29;20216;-76
2023/02/10 20:03:32;;;;;;;29.40;15.50;;;;;6.80;103045.00;;;;10030583;29;20209;-76
2023/02/10 20:08:34;;;;;;;32.03;14.40;;;;;6.90;103056.00;;;;10083003;29;20286;-79
2023/02/10 20:13:36;;;;;;;29.10;13.90;;;;;6.90;103047.00;;;;10083577;29;20209;-77
2023/02/10 20:18:38;;;;;;;30.73;15.80;;;;;6.90;103050.00;;;;10067431;29;20679;-79
2023/02/10 20:23:41;;;;;;;22.20;13.10;;;;;6.90;103047.00;;;;10067137;29;20193;-78
2023/02/10 20:28:43;;;;;;;24.50;12.07;;;;;6.90;103035.00;;;;10030133;29;20227;-79
2023/02/10 20:33:46;;;;;;;23.20;12.60;;;;;6.90;103028.00;;;;10029378;29;20213;-79
2023/02/10 20:38:48;;;;;;;27.87;13.53;;;;;6.80;103044.00;;;;10063317;29;20208;-79
2023/02/10 20:43:51;;;;;;;29.17;13.17;;;;;6.80;103061.00;;;;10077589;29;20197;-77
2023/02/10 20:48:53;;;;;;;24.67;12.77;;;;;6.80;103076.00;;;;10013256;29;20185;-77
2023/02/10 20:53:55;;;;;;;23.13;11.83;;;;;6.80;103070.00;;;;10028775;29;20282;-79
2023/02/10 20:59:02;;;;;;;19.10;11.20;;;;;6.70;103069.00;;;;10054382;29;20615;-79
2023/02/10 21:04:04;;;;;;;25.13;12.30;;;;;6.70;103062.00;;;;10033816;29;20204;-79
2023/02/10 21:09:06;;;;;;;22.90;11.70;;;;;6.70;103072.00;;;;10028898;29;20233;-79
2023/02/10 21:14:09;;;;;;;21.30;10.20;;;;;6.60;103069.00;;;;10027980;29;20236;-79
2023/02/10 21:19:11;;;;;;;44.30;19.37;;;;;6.60;103073.00;;;;10027923;29;20206;-77
2023/02/10 21:24:14;;;;;;;21.20;12.93;;;;;6.60;103071.00;;;;10012469;29;20224;-77
2023/02/10 21:29:16;;;;;;;20.70;13.03;;;;;6.50;103064.00;;;;9996924;29;20244;-79
2023/02/10 21:34:19;;;;;;;19.87;12.50;;;;;6.50;103068.00;;;;9974550;29;20586;-78
2023/02/10 21:39:22;;;;;;;31.43;13.47;;;;;6.50;103069.00;;;;10020605;29;20626;-77
2023/02/10 21:44:28;;;;;;;21.37;11.43;;;;;6.50;103068.00;;;;10041252;29;20204;-79
2023/02/10 21:49:31;;;;;;;20.13;11.63;;;;;6.40;103076.00;;;;10009952;29;20209;-79
2023/02/10 21:54:38;;;;;;;20.47;11.07;;;;;6.40;103064.00;;;;10068520;29;20995;-79
2023/02/10 21:59:40;;;;;;;20.30;10.50;;;;;6.40;103064.00;;;;10027873;29;20201;-79
2023/02/10 22:04:42;;;;;;;26.70;11.73;;;;;6.30;103071.00;;;;10027132;29;20200;-79
2023/02/10 22:09:44;;;;;;;24.90;11.63;;;;;6.30;103065.00;;;;10027576;29;20207;-79
2023/02/10 22:14:46;;;;;;;19.07;10.47;;;;;6.30;103082.00;;;;10056629;29;20243;-79
2023/02/10 22:19:48;;;;;;;20.03;11.20;;;;;6.30;103087.00;;;;10056313;29;20561;-79
2023/02/10 22:24:50;;;;;;;26.00;11.37;;;;;6.30;103083.00;;;;10010996;29;20228;-79
2023/02/10 22:29:52;;;;;;;17.73;10.43;;;;;6.30;103076.00;;;;10026058;29;20216;-79
2023/02/10 22:34:54;;;;;;;20.73;9.97;;;;;6.20;103080.00;;;;10026620;29;20700;-78
2023/02/10 22:39:55;;;;;;;19.93;9.57;;;;;6.20;103063.00;;;;10042726;29;20229;-78
2023/02/10 22:44:57;;;;;;;21.63;10.70;;;;;6.10;103044.00;;;;10027134;29;20271;-78
2023/02/10 22:50:03;;;;;;;21.23;10.03;;;;;6.10;103059.00;;;;10042576;29;20649;-79
2023/02/10 22:55:06;;;;;;;15.80;9.63;;;;;6.10;103068.00;;;;10031256;29;20721;-79
2023/02/10 23:00:19;;;;;;;17.33;9.20;;;;;6.10;103069.00;;;;10009708;29;20201;-79
2023/02/10 23:05:21;;;;;;;20.47;9.57;;;;;6.10;103064.00;;;;9975747;29;20201;-79
2023/02/10 23:10:23;;;;;;;15.23;8.33;;;;;6.10;103061.00;;;;10001640;29;20200;-79
2023/02/10 23:15:25;;;;;;;11.50;7.70;;;;;6.10;103064.00;;;;9992026;29;20256;-79
2023/02/10 23:20:27;;;;;;;12.90;7.47;;;;;6.10;103060.00;;;;10039578;29;20212;-79
2023/02/10 23:25:29;;;;;;;19.73;8.93;;;;;6.10;103068.00;;;;10023765;29;20308;-79
2023/02/10 23:30:31;;;;;;;15.93;7.90;;;;;6.00;103067.00;;;;9994659;29;20232;-80
2023/02/10 23:35:42;;;;;;;13.07;6.90;;;;;5.90;103052.00;;;;9989588;29;20250;-79
2023/02/10 23:40:44;;;;;;;12.27;7.50;;;;;5.80;103049.00;;;;10001226;29;20293;-77
2023/02/10 23:45:46;;;;;;;19.17;7.27;;;;;5.70;103039.00;;;;10002235;29;20557;-77
2023/02/10 23:50:49;;;;;;;15.80;6.97;;;;;5.50;103030.00;;;;10059335;29;20212;-79
2023/02/10 23:55:51;;;;;;;11.07;7.00;;;;;5.50;103017.00;;;;10006160;29;20724;-77
